sensor_id;sensor_type;location;lat;lon;timestamp;P1;durP1;ratioP1;P2;durP2;ratioP2
53313;SDS011;39202;51.468;7.146;2022-10-30T00:02:46;1.08;;;1.08;;
53313;SDS011;39202;51.468;7.146;2022-10-30T00:07:50;1.15;;;1.10;;
53313;SDS011;39202;51.468;7.146;2022-10-30T00:12:52;1.05;;;1.05;;
53313;SDS011;39202;51.468;7.146;2022-10-30T00:17:54;1.15;;;1.15;;
53313;SDS011;39202;51.468;7.146;2022-10-30T00:22:57;1.15;;;1.10;;
53313;SDS011;39202;51.468;7.146;2022-10-30T00:27:58;1.10;;;1.10;;
53313;SDS011;39202;51.468;7.146;2022-10-30T00:33:00;1.05;;;0.98;;
53313;SDS011;39202;51.468;7.146;2022-10-30T00:38:03;1.02;;;1.02;;
53313;SDS011;39202;51.468;7.146;2022-10-30T00:48:27;1.00;;;1.00;;
53313;SDS011;39202;51.468;7.146;2022-10-30T00:53:30;1.00;;;1.00;;
53313;SDS011;39202;51.468;7.146;2022-10-30T00:58:33;1.10;;;1.10;;
53313;SDS011;39202;51.468;7.146;2022-10-30T01:03:40;1.00;;;1.00;;
53313;SDS011;39202;51.468;7.146;2022-10-30T01:08:43;1.08;;;1.08;;
53313;SDS011;39202;51.468;7.146;2022-10-30T01:13:46;1.08;;;1.08;;
53313;SDS011;39202;51.468;7.146;2022-10-30T01:18:51;0.93;;;0.93;;
53313;SDS011;39202;51.468;7.146;2022-10-30T01:24:04;0.90;;;0.90;;
53313;SDS011;39202;51.468;7.146;2022-10-30T01:29:19;0.98;;;0.98;;
53313;SDS011;39202;51.468;7.146;2022-10-30T01:34:29;0.93;;;0.93;;
53313;SDS011;39202;51.468;7.146;2022-10-30T01:39:41;1.05;;;1.05;;
53313;SDS011;39202;51.468;7.146;2022-10-30T01:44:43;1.00;;;1.00;;
53313;SDS011;39202;51.468;7.146;2022-10-30T01:49:48;1.10;;;1.10;;
53313;SDS011;39202;51.468;7.146;2022-10-30T01:55:18;0.98;;;0.98;;
53313;SDS011;39202;51.468;7.146;2022-10-30T02:00:29;1.00;;;1.00;;
53313;SDS011;39202;51.468;7.146;2022-10-30T02:05:31;1.00;;;1.00;;
53313;SDS011;39202;51.468;7.146;2022-10-30T02:10:39;1.00;;;1.00;;
53313;SDS011;39202;51.468;7.146;2022-10-30T02:15:42;1.02;;;1.02;;
53313;SDS011;39202;51.468;7.146;2022-10-30T02:20:46;1.30;;;1.30;;
53313;SDS011;39202;51.468;7.146;2022-10-30T02:25:48;1.00;;;1.00;;
53313;SDS011;39202;51.468;7.146;2022-10-30T02:30:49;1.10;;;1.10;;
53313;SDS011;39202;51.468;7.146;2022-10-30T02:35:53;1.27;;;1.15;;
53313;SDS011;39202;51.468;7.146;2022-10-30T02:40:55;1.10;;;1.10;;
53313;SDS011;39202;51.468;7.146;2022-10-30T02:45:57;1.05;;;1.05;;
53313;SDS011;39202;51.468;7.146;2022-10-30T02:51:00;1.13;;;1.13;;
53313;SDS011;39202;51.468;7.146;2022-10-30T02:56:03;1.38;;;1.15;;
53313;SDS011;39202;51.468;7.146;2022-10-30T03:01:06;1.23;;;1.13;;
53313;SDS011;39202;51.468;7.146;2022-10-30T03:06:11;1.20;;;1.20;;
53313;SDS011;39202;51.468;7.146;2022-10-30T03:11:15;1.30;;;1.30;;
53313;SDS011;39202;51.468;7.146;2022-10-30T03:16:19;1.02;;;1.02;;
53313;SDS011;39202;51.468;7.146;2022-10-30T03:21:24;1.08;;;1.08;;
53313;SDS011;39202;51.468;7.146;2022-10-30T03:26:27;1.25;;;1.25;;
53313;SDS011;39202;51.468;7.146;2022-10-30T03:31:29;1.02;;;1.02;;
53313;SDS011;39202;51.468;7.146;2022-10-30T03:36:33;1.17;;;1.10;;
53313;SDS011;39202;51.468;7.146;2022-10-30T03:41:34;1.00;;;1.00;;
53313;SDS011;39202;51.468;7.146;2022-10-30T03:46:36;1.20;;;1.20;;
53313;SDS011;39202;51.468;7.146;2022-10-30T03:51:40;1.02;;;1.02;;
53313;SDS011;39202;51.468;7.146;2022-10-30T03:56:42;1.08;;;1.08;;
53313;SDS011;39202;51.468;7.146;2022-10-30T04:01:44;1.23;;;1.23;;
53313;SDS011;39202;51.468;7.146;2022-10-30T04:06:47;1.40;;;1.30;;
53313;SDS011;39202;51.468;7.146;2022-10-30T04:11:49;1.17;;;1.17;;
53313;SDS011;39202;51.468;7.146;2022-10-30T04:16:51;1.35;;;1.25;;
53313;SDS011;39202;51.468;7.146;2022-10-30T04:21:54;1.10;;;1.10;;
53313;SDS011;39202;51.468;7.146;2022-10-30T04:26:55;1.27;;;1.27;;
53313;SDS011;39202;51.468;7.146;2022-10-30T04:31:57;1.20;;;1.20;;
53313;SDS011;39202;51.468;7.146;2022-10-30T04:37:00;1.20;;;1.20;;
53313;SDS011;39202;51.468;7.146;2022-10-30T04:42:03;1.23;;;1.23;;
53313;SDS011;39202;51.468;7.146;2022-10-30T04:47:05;1.27;;;1.17;;
53313;SDS011;39202;51.468;7.146;2022-10-30T04:52:08;1.30;;;1.30;;
53313;SDS011;39202;51.468;7.146;2022-10-30T04:57:10;1.50;;;1.40;;
53313;SDS011;39202;51.468;7.146;2022-10-30T05:02:11;1.30;;;1.30;;
53313;SDS011;39202;51.468;7.146;2022-10-30T05:07:14;1.38;;;1.38;;
53313;SDS011;39202;51.468;7.146;2022-10-30T05:12:17;1.10;;;1.10;;
53313;SDS011;39202;51.468;7.146;2022-10-30T05:17:19;1.40;;;1.30;;
53313;SDS011;39202;51.468;7.146;2022-10-30T05:22:23;1.73;;;1.63;;
53313;SDS011;39202;51.468;7.146;2022-10-30T05:27:24;1.27;;;1.27;;
53313;SDS011;39202;51.468;7.146;2022-10-30T05:32:26;1.20;;;1.20;;
53313;SDS011;39202;51.468;7.146;2022-10-30T05:37:29;1.33;;;1.30;;
53313;SDS011;39202;51.468;7.146;2022-10-30T05:42:30;1.10;;;1.10;;
53313;SDS011;39202;51.468;7.146;2022-10-30T05:47:32;1.38;;;1.30;;
53313;SDS011;39202;51.468;7.146;2022-10-30T05:52:35;1.17;;;1.17;;
53313;SDS011;39202;51.468;7.146;2022-10-30T05:57:37;1.55;;;1.45;;
53313;SDS011;39202;51.468;7.146;2022-10-30T06:02:39;1.27;;;1.10;;
53313;SDS011;39202;51.468;7.146;2022-10-30T06:07:42;1.70;;;1.60;;
53313;SDS011;39202;51.468;7.146;2022-10-30T06:12:50;1.38;;;1.38;;
53313;SDS011;39202;51.468;7.146;2022-10-30T06:17:52;1.35;;;1.30;;
53313;SDS011;39202;51.468;7.146;2022-10-30T06:22:56;1.40;;;1.30;;
53313;SDS011;39202;51.468;7.146;2022-10-30T06:27:59;1.20;;;1.20;;
53313;SDS011;39202;51.468;7.146;2022-10-30T06:33:02;1.30;;;1.30;;
53313;SDS011;39202;51.468;7.146;2022-10-30T06:38:06;1.52;;;1.42;;
53313;SDS011;39202;51.468;7.146;2022-10-30T06:43:09;1.20;;;1.20;;
53313;SDS011;39202;51.468;7.146;2022-10-30T06:48:10;1.63;;;1.52;;
53313;SDS011;39202;51.468;7.146;2022-10-30T06:53:13;1.45;;;1.35;;
53313;SDS011;39202;51.468;7.146;2022-10-30T06:58:15;1.83;;;1.73;;
53313;SDS011;39202;51.468;7.146;2022-10-30T07:03:17;1.50;;;1.40;;
53313;SDS011;39202;51.468;7.146;2022-10-30T07:08:20;1.20;;;1.20;;
53313;SDS011;39202;51.468;7.146;2022-10-30T07:13:22;1.42;;;1.38;;
53313;SDS011;39202;51.468;7.146;2022-10-30T07:18:23;1.30;;;1.30;;
53313;SDS011;39202;51.468;7.146;2022-10-30T07:23:26;1.30;;;1.30;;
53313;SDS011;39202;51.468;7.146;2022-10-30T07:28:28;1.40;;;1.30;;
53313;SDS011;39202;51.468;7.146;2022-10-30T07:33:31;1.40;;;1.40;;
53313;SDS011;39202;51.468;7.146;2022-10-30T07:38:34;1.50;;;1.40;;
53313;SDS011;39202;51.468;7.146;2022-10-30T07:43:36;1.30;;;1.30;;
53313;SDS011;39202;51.468;7.146;2022-10-30T07:48:37;1.30;;;1.30;;
53313;SDS011;39202;51.468;7.146;2022-10-30T07:53:41;1.27;;;1.27;;
53313;SDS011;39202;51.468;7.146;2022-10-30T07:58:42;1.33;;;1.33;;
53313;SDS011;39202;51.468;7.146;2022-10-30T08:03:44;1.20;;;1.20;;
53313;SDS011;39202;51.468;7.146;2022-10-30T08:08:47;1.38;;;1.30;;
53313;SDS011;39202;51.468;7.146;2022-10-30T08:13:49;1.60;;;1.50;;
53313;SDS011;39202;51.468;7.146;2022-10-30T08:18:51;1.40;;;1.40;;
53313;SDS011;39202;51.468;7.146;2022-10-30T08:23:54;1.65;;;1.55;;
53313;SDS011;39202;51.468;7.146;2022-10-30T08:28:56;1.60;;;1.50;;
53313;SDS011;39202;51.468;7.146;2022-10-30T08:33:57;1.58;;;1.45;;
53313;SDS011;39202;51.468;7.146;2022-10-30T08:39:01;1.70;;;1.60;;
53313;SDS011;39202;51.468;7.146;2022-10-30T08:44:03;1.45;;;1.35;;
53313;SDS011;39202;51.468;7.146;2022-10-30T08:49:05;1.33;;;1.23;;
53313;SDS011;39202;51.468;7.146;2022-10-30T08:54:08;1.45;;;1.35;;
53313;SDS011;39202;51.468;7.146;2022-10-30T08:59:10;1.30;;;1.30;;
53313;SDS011;39202;51.468;7.146;2022-10-30T09:04:12;1.40;;;1.30;;
53313;SDS011;39202;51.468;7.146;2022-10-30T09:09:15;1.30;;;1.25;;
53313;SDS011;39202;51.468;7.146;2022-10-30T09:14:16;1.58;;;1.48;;
53313;SDS011;39202;51.468;7.146;2022-10-30T09:19:18;1.67;;;1.58;;
53313;SDS011;39202;51.468;7.146;2022-10-30T09:24:21;1.40;;;1.40;;
53313;SDS011;39202;51.468;7.146;2022-10-30T09:29:23;1.45;;;1.35;;
53313;SDS011;39202;51.468;7.146;2022-10-30T09:34:25;1.20;;;1.10;;
53313;SDS011;39202;51.468;7.146;2022-10-30T09:39:28;1.52;;;1.42;;
53313;SDS011;39202;51.468;7.146;2022-10-30T09:44:32;1.30;;;1.20;;
53313;SDS011;39202;51.468;7.146;2022-10-30T09:49:53;2.15;;;1.40;;
53313;SDS011;39202;51.468;7.146;2022-10-30T09:55:07;1.23;;;1.23;;
53313;SDS011;39202;51.468;7.146;2022-10-30T10:00:32;1.42;;;1.33;;
53313;SDS011;39202;51.468;7.146;2022-10-30T10:05:40;1.50;;;1.40;;
53313;SDS011;39202;51.468;7.146;2022-10-30T10:10:46;1.40;;;1.30;;
53313;SDS011;39202;51.468;7.146;2022-10-30T10:15:53;1.50;;;1.42;;
53313;SDS011;39202;51.468;7.146;2022-10-30T10:20:58;1.30;;;1.30;;
53313;SDS011;39202;51.468;7.146;2022-10-30T10:26:09;1.40;;;1.30;;
53313;SDS011;39202;51.468;7.146;2022-10-30T10:31:33;1.40;;;1.30;;
53313;SDS011;39202;51.468;7.146;2022-10-30T10:36:44;1.33;;;1.33;;
53313;SDS011;39202;51.468;7.146;2022-10-30T10:41:57;1.45;;;1.38;;
53313;SDS011;39202;51.468;7.146;2022-10-30T10:47:13;1.50;;;1.40;;
53313;SDS011;39202;51.468;7.146;2022-10-30T10:52:33;1.42;;;1.30;;
53313;SDS011;39202;51.468;7.146;2022-10-30T10:57:39;1.33;;;1.23;;
53313;SDS011;39202;51.468;7.146;2022-10-30T11:02:44;1.30;;;1.30;;
53313;SDS011;39202;51.468;7.146;2022-10-30T11:07:48;1.65;;;1.55;;
53313;SDS011;39202;51.468;7.146;2022-10-30T11:12:51;1.67;;;1.58;;
53313;SDS011;39202;51.468;7.146;2022-10-30T11:17:57;1.40;;;1.30;;
53313;SDS011;39202;51.468;7.146;2022-10-30T11:23:00;1.50;;;1.40;;
53313;SDS011;39202;51.468;7.146;2022-10-30T11:28:04;1.27;;;1.20;;
53313;SDS011;39202;51.468;7.146;2022-10-30T11:33:19;1.60;;;1.50;;
53313;SDS011;39202;51.468;7.146;2022-10-30T11:38:22;1.30;;;1.30;;
53313;SDS011;39202;51.468;7.146;2022-10-30T11:43:28;1.45;;;1.35;;
53313;SDS011;39202;51.468;7.146;2022-10-30T11:48:30;1.58;;;1.48;;
53313;SDS011;39202;51.468;7.146;2022-10-30T11:53:34;1.40;;;1.30;;
53313;SDS011;39202;51.468;7.146;2022-10-30T11:58:42;1.38;;;1.38;;
53313;SDS011;39202;51.468;7.146;2022-10-30T12:03:46;1.42;;;1.33;;
53313;SDS011;39202;51.468;7.146;2022-10-30T12:08:57;1.60;;;1.50;;
53313;SDS011;39202;51.468;7.146;2022-10-30T12:14:01;1.20;;;1.20;;
53313;SDS011;39202;51.468;7.146;2022-10-30T12:19:05;1.50;;;1.40;;
53313;SDS011;39202;51.468;7.146;2022-10-30T12:24:16;1.30;;;1.20;;
53313;SDS011;39202;51.468;7.146;2022-10-30T12:29:23;1.13;;;1.13;;
53313;SDS011;39202;51.468;7.146;2022-10-30T12:34:30;1.58;;;1.48;;
53313;SDS011;39202;51.468;7.146;2022-10-30T12:39:46;1.20;;;1.20;;
53313;SDS011;39202;51.468;7.146;2022-10-30T12:45:05;1.55;;;1.45;;
53313;SDS011;39202;51.468;7.146;2022-10-30T12:50:14;1.38;;;1.27;;
53313;SDS011;39202;51.468;7.146;2022-10-30T12:55:22;1.42;;;1.33;;
53313;SDS011;39202;51.468;7.146;2022-10-30T13:00:28;1.20;;;1.20;;
53313;SDS011;39202;51.468;7.146;2022-10-30T13:05:32;1.40;;;1.30;;
53313;SDS011;39202;51.468;7.146;2022-10-30T13:10:40;1.20;;;1.20;;
53313;SDS011;39202;51.468;7.146;2022-10-30T13:15:47;1.17;;;1.17;;
53313;SDS011;39202;51.468;7.146;2022-10-30T13:20:55;1.25;;;1.25;;
53313;SDS011;39202;51.468;7.146;2022-10-30T13:26:10;1.27;;;1.27;;
53313;SDS011;39202;51.468;7.146;2022-10-30T13:31:21;1.27;;;1.27;;
53313;SDS011;39202;51.468;7.146;2022-10-30T13:36:32;1.20;;;1.20;;
53313;SDS011;39202;51.468;7.146;2022-10-30T13:41:42;1.60;;;1.50;;
53313;SDS011;39202;51.468;7.146;2022-10-30T13:47:02;1.15;;;1.15;;
53313;SDS011;39202;51.468;7.146;2022-10-30T13:52:14;1.20;;;1.20;;
53313;SDS011;39202;51.468;7.146;2022-10-30T13:57:18;1.52;;;1.40;;
53313;SDS011;39202;51.468;7.146;2022-10-30T14:07:52;1.20;;;1.20;;
53313;SDS011;39202;51.468;7.146;2022-10-30T14:13:06;1.13;;;1.13;;
53313;SDS011;39202;51.468;7.146;2022-10-30T14:18:28;1.00;;;1.00;;
53313;SDS011;39202;51.468;7.146;2022-10-30T14:23:32;1.20;;;1.20;;
53313;SDS011;39202;51.468;7.146;2022-10-30T14:28:36;1.40;;;1.30;;
53313;SDS011;39202;51.468;7.146;2022-10-30T14:33:42;1.40;;;1.30;;
53313;SDS011;39202;51.468;7.146;2022-10-30T14:38:53;1.20;;;1.20;;
53313;SDS011;39202;51.468;7.146;2022-10-30T14:44:09;1.10;;;1.10;;
53313;SDS011;39202;51.468;7.146;2022-10-30T14:54:49;1.35;;;1.25;;
53313;SDS011;39202;51.468;7.146;2022-10-30T15:00:26;1.40;;;1.30;;
53313;SDS011;39202;51.468;7.146;2022-10-30T15:05:38;1.38;;;1.27;;
53313;SDS011;39202;51.468;7.146;2022-10-30T15:10:48;1.13;;;1.13;;
53313;SDS011;39202;51.468;7.146;2022-10-30T15:16:03;1.10;;;1.10;;
53313;SDS011;39202;51.468;7.146;2022-10-30T15:21:11;1.13;;;1.13;;
53313;SDS011;39202;51.468;7.146;2022-10-30T15:26:22;1.30;;;1.20;;
53313;SDS011;39202;51.468;7.146;2022-10-30T15:31:32;1.10;;;1.10;;
53313;SDS011;39202;51.468;7.146;2022-10-30T15:36:40;1.17;;;1.17;;
53313;SDS011;39202;51.468;7.146;2022-10-30T15:41:42;1.20;;;1.20;;
53313;SDS011;39202;51.468;7.146;2022-10-30T15:46:47;1.10;;;1.10;;
53313;SDS011;39202;51.468;7.146;2022-10-30T15:51:52;1.25;;;1.25;;
53313;SDS011;39202;51.468;7.146;2022-10-30T15:56:54;1.08;;;1.08;;
53313;SDS011;39202;51.468;7.146;2022-10-30T16:01:58;1.40;;;1.33;;
53313;SDS011;39202;51.468;7.146;2022-10-30T16:07:07;1.23;;;1.23;;
53313;SDS011;39202;51.468;7.146;2022-10-30T16:12:17;1.10;;;1.10;;
53313;SDS011;39202;51.468;7.146;2022-10-30T16:17:19;1.25;;;1.20;;
53313;SDS011;39202;51.468;7.146;2022-10-30T16:22:23;1.30;;;1.30;;
53313;SDS011;39202;51.468;7.146;2022-10-30T16:27:28;1.00;;;1.00;;
53313;SDS011;39202;51.468;7.146;2022-10-30T16:32:30;1.13;;;1.13;;
53313;SDS011;39202;51.468;7.146;2022-10-30T16:37:34;1.23;;;1.23;;
53313;SDS011;39202;51.468;7.146;2022-10-30T16:42:37;1.50;;;1.40;;
53313;SDS011;39202;51.468;7.146;2022-10-30T16:47:39;1.20;;;1.20;;
53313;SDS011;39202;51.468;7.146;2022-10-30T16:52:46;1.30;;;1.30;;
53313;SDS011;39202;51.468;7.146;2022-10-30T16:57:51;1.33;;;1.30;;
53313;SDS011;39202;51.468;7.146;2022-10-30T17:02:56;1.10;;;1.10;;
53313;SDS011;39202;51.468;7.146;2022-10-30T17:08:03;1.40;;;1.30;;
53313;SDS011;39202;51.468;7.146;2022-10-30T17:18:33;1.58;;;1.42;;
53313;SDS011;39202;51.468;7.146;2022-10-30T17:23:36;1.38;;;1.30;;
53313;SDS011;39202;51.468;7.146;2022-10-30T17:28:45;1.42;;;1.30;;
53313;SDS011;39202;51.468;7.146;2022-10-30T17:33:48;2.55;;;1.50;;
53313;SDS011;39202;51.468;7.146;2022-10-30T17:39:15;1.35;;;1.30;;
53313;SDS011;39202;51.468;7.146;2022-10-30T17:44:18;1.55;;;1.45;;
53313;SDS011;39202;51.468;7.146;2022-10-30T17:49:23;1.45;;;1.35;;
53313;SDS011;39202;51.468;7.146;2022-10-30T17:54:29;1.42;;;1.33;;
53313;SDS011;39202;51.468;7.146;2022-10-30T17:59:30;1.20;;;1.20;;
53313;SDS011;39202;51.468;7.146;2022-10-30T18:04:32;1.60;;;1.50;;
53313;SDS011;39202;51.468;7.146;2022-10-30T18:09:35;1.38;;;1.38;;
53313;SDS011;39202;51.468;7.146;2022-10-30T18:14:37;1.40;;;1.30;;
53313;SDS011;39202;51.468;7.146;2022-10-30T18:19:39;1.30;;;1.30;;
53313;SDS011;39202;51.468;7.146;2022-10-30T18:24:42;1.30;;;1.30;;
53313;SDS011;39202;51.468;7.146;2022-10-30T18:29:44;1.40;;;1.30;;
53313;SDS011;39202;51.468;7.146;2022-10-30T18:34:45;1.20;;;1.20;;
53313;SDS011;39202;51.468;7.146;2022-10-30T18:39:49;1.58;;;1.48;;
53313;SDS011;39202;51.468;7.146;2022-10-30T18:44:50;1.40;;;1.30;;
53313;SDS011;39202;51.468;7.146;2022-10-30T18:49:52;1.42;;;1.30;;
53313;SDS011;39202;51.468;7.146;2022-10-30T18:54:56;1.50;;;1.40;;
53313;SDS011;39202;51.468;7.146;2022-10-30T18:59:58;1.50;;;1.40;;
53313;SDS011;39202;51.468;7.146;2022-10-30T19:05:06;1.65;;;1.50;;
53313;SDS011;39202;51.468;7.146;2022-10-30T19:10:18;1.42;;;1.33;;
53313;SDS011;39202;51.468;7.146;2022-10-30T19:15:21;1.50;;;1.40;;
53313;SDS011;39202;51.468;7.146;2022-10-30T19:20:26;1.60;;;1.50;;
53313;SDS011;39202;51.468;7.146;2022-10-30T19:25:30;1.50;;;1.40;;
53313;SDS011;39202;51.468;7.146;2022-10-30T19:30:33;1.60;;;1.50;;
53313;SDS011;39202;51.468;7.146;2022-10-30T19:35:35;1.60;;;1.50;;
53313;SDS011;39202;51.468;7.146;2022-10-30T19:40:38;1.63;;;1.52;;
53313;SDS011;39202;51.468;7.146;2022-10-30T19:45:43;1.55;;;1.50;;
53313;SDS011;39202;51.468;7.146;2022-10-30T19:50:45;2.03;;;1.50;;
53313;SDS011;39202;51.468;7.146;2022-10-30T19:55:48;2.10;;;1.63;;
53313;SDS011;39202;51.468;7.146;2022-10-30T20:00:50;1.70;;;1.60;;
53313;SDS011;39202;51.468;7.146;2022-10-30T20:05:53;1.70;;;1.60;;
53313;SDS011;39202;51.468;7.146;2022-10-30T20:10:56;1.60;;;1.50;;
53313;SDS011;39202;51.468;7.146;2022-10-30T20:16:00;1.50;;;1.40;;
53313;SDS011;39202;51.468;7.146;2022-10-30T20:21:04;1.50;;;1.40;;
53313;SDS011;39202;51.468;7.146;2022-10-30T20:26:12;1.70;;;1.60;;
53313;SDS011;39202;51.468;7.146;2022-10-30T20:31:22;1.63;;;1.52;;
53313;SDS011;39202;51.468;7.146;2022-10-30T20:36:24;1.92;;;1.48;;
53313;SDS011;39202;51.468;7.146;2022-10-30T20:41:27;1.83;;;1.73;;
53313;SDS011;39202;51.468;7.146;2022-10-30T20:46:29;1.70;;;1.60;;
53313;SDS011;39202;51.468;7.146;2022-10-30T20:51:31;1.70;;;1.60;;
53313;SDS011;39202;51.468;7.146;2022-10-30T20:56:34;1.80;;;1.70;;
53313;SDS011;39202;51.468;7.146;2022-10-30T21:01:36;1.70;;;1.50;;
53313;SDS011;39202;51.468;7.146;2022-10-30T21:06:37;1.60;;;1.50;;
53313;SDS011;39202;51.468;7.146;2022-10-30T21:11:41;1.48;;;1.42;;
53313;SDS011;39202;51.468;7.146;2022-10-30T21:16:42;1.40;;;1.30;;
53313;SDS011;39202;51.468;7.146;2022-10-30T21:21:44;1.60;;;1.50;;
53313;SDS011;39202;51.468;7.146;2022-10-30T21:26:47;1.52;;;1.50;;
53313;SDS011;39202;51.468;7.146;2022-10-30T21:31:49;1.80;;;1.70;;
53313;SDS011;39202;51.468;7.146;2022-10-30T21:36:50;2.17;;;1.65;;
53313;SDS011;39202;51.468;7.146;2022-10-30T21:41:53;1.55;;;1.45;;
53313;SDS011;39202;51.468;7.146;2022-10-30T21:46:55;1.67;;;1.58;;
53313;SDS011;39202;51.468;7.146;2022-10-30T21:51:57;1.80;;;1.70;;
53313;SDS011;39202;51.468;7.146;2022-10-30T21:57:00;1.67;;;1.58;;
53313;SDS011;39202;51.468;7.146;2022-10-30T22:02:02;1.65;;;1.55;;
53313;SDS011;39202;51.468;7.146;2022-10-30T22:07:03;1.73;;;1.63;;
53313;SDS011;39202;51.468;7.146;2022-10-30T22:12:06;2.10;;;1.90;;
53313;SDS011;39202;51.468;7.146;2022-10-30T22:17:08;2.33;;;1.70;;
53313;SDS011;39202;51.468;7.146;2022-10-30T22:22:11;1.60;;;1.50;;
53313;SDS011;39202;51.468;7.146;2022-10-30T22:27:14;1.50;;;1.40;;
53313;SDS011;39202;51.468;7.146;2022-10-30T22:32:16;1.90;;;1.73;;
53313;SDS011;39202;51.468;7.146;2022-10-30T22:37:18;1.67;;;1.58;;
53313;SDS011;39202;51.468;7.146;2022-10-30T22:42:21;1.80;;;1.70;;
53313;SDS011;39202;51.468;7.146;2022-10-30T22:47:23;1.75;;;1.65;;
53313;SDS011;39202;51.468;7.146;2022-10-30T22:52:24;1.92;;;1.83;;
53313;SDS011;39202;51.468;7.146;2022-10-30T22:57:27;1.77;;;1.67;;
53313;SDS011;39202;51.468;7.146;2022-10-30T23:02:29;1.70;;;1.60;;
53313;SDS011;39202;51.468;7.146;2022-10-30T23:07:31;1.70;;;1.60;;
53313;SDS011;39202;51.468;7.146;2022-10-30T23:12:34;1.90;;;1.80;;
53313;SDS011;39202;51.468;7.146;2022-10-30T23:17:35;1.73;;;1.63;;
53313;SDS011;39202;51.468;7.146;2022-10-30T23:22:37;1.85;;;1.75;;
53313;SDS011;39202;51.468;7.146;2022-10-30T23:27:40;2.58;;;1.85;;
53313;SDS011;39202;51.468;7.146;2022-10-30T23:32:42;1.90;;;1.80;;
53313;SDS011;39202;51.468;7.146;2022-10-30T23:37:47;1.77;;;1.67;;
53313;SDS011;39202;51.468;7.146;2022-10-30T23:42:53;1.92;;;1.83;;
53313;SDS011;39202;51.468;7.146;2022-10-30T23:47:55;1.65;;;1.55;;
53313;SDS011;39202;51.468;7.146;2022-10-30T23:52:56;2.35;;;1.92;;
53313;SDS011;39202;51.468;7.146;2022-10-30T23:57:59;1.80;;;1.70;;
